This is the latest recevied weather packets stored in our database for station/object DG5MNJ. If no packets are shown the sender has not sent any weather packets the latest 10 day(s).
| Time | Temp. | Humidity | Pressure | Rain* | Wind** | Luminosity | Snow |
|---|---|---|---|---|---|---|---|
| 1778015102 | 11.67° C | 93% | 1007.4 hPa | 1.78 mm | - | 0 W/m² | - |
| 1778014503 | 12.22° C | 90% | 1007.3 hPa | 0.51 mm | - | 0 W/m² | - |
| 1778010302 | 14.44° C | 84% | 1005.6 hPa | 0 mm | - | 0 W/m² | - |
| 1778009703 | 14.44° C | 85% | 1005.3 hPa | 0 mm | - | 0 W/m² | - |
| 1778007902 | 14.44° C | 80% | 1004.9 hPa | 0 mm | - | 0 W/m² | - |
| 1778001922 | 17.22° C | 74% | 1003.9 hPa | 0 mm | - | 75 W/m² | - |
| 1778001602 | 17.22° C | 74% | 1004.1 hPa | 0 mm | - | 86 W/m² | - |
| 1778000402 | 16.67° C | 76% | 1004.1 hPa | 0 mm | - | 162 W/m² | - |
| 1777999502 | 16.67° C | 79% | 1003.9 hPa | 0 mm | - | 268 W/m² | - |
| 1777998601 | 16.67° C | 78% | 1004.2 hPa | 0 mm | - | 196 W/m² | - |
| 1777992604 | 13.89° C | 87% | 1005 hPa | 2.54 mm | - | 18 W/m² | - |
| 1777989002 | 22.22° C | 42% | 1003.5 hPa | 0 mm | - | 148 W/m² | - |
| 1777986302 | 22.78° C | 37% | 1003.4 hPa | 0 mm | - | 277 W/m² | - |
| 1777986002 | 23.33° C | 38% | 1003.7 hPa | 0 mm | - | 365 W/m² | - |
| 1777984502 | 23.33° C | 38% | 1003.6 hPa | 0 mm | - | 269 W/m² | - |
| 1777984202 | 23.33° C | 38% | 1003.5 hPa | 0 mm | - | 301 W/m² | - |
| 1777983922 | 23.33° C | 38% | 1003.7 hPa | 0 mm | - | 339 W/m² | - |
| 1777983022 | 23.89° C | 37% | 1003.5 hPa | 0 mm | - | 441 W/m² | - |
| 1777976102 | 22.78° C | 39% | 1005 hPa | 0 mm | - | 772 W/m² | - |
| 1777973702 | 22.22° C | 40% | 1005.4 hPa | 0 mm | - | 788 W/m² | - |
| 1777972202 | 21.67° C | 45% | 1005.9 hPa | 0 mm | - | 838 W/m² | - |
| 1777967401 | 18.89° C | 60% | 1006.7 hPa | 0 mm | - | 562 W/m² | - |
| 1777967101 | 19.44° C | 59% | 1006.6 hPa | 0 mm | - | 395 W/m² | - |
| 1777961102 | 14.44° C | 77% | 1007.3 hPa | 0 mm | - | 184 W/m² | - |
| 1777959902 | 13.33° C | 78% | 1007.4 hPa | 0 mm | - | 242 W/m² | - |
* Rain latest hour (hover to see other rain measurements)
** Current wind speed in m/s (hover to see current wind gust speed)